sensor_id;sensor_type;location;lat;lon;timestamp;pressure;altitude;pressure_sealevel;temperature;humidity
43119;BME280;28729;49.838;8.650;2022-07-12T00:00:08;100498.72;;;17.06;79.08
43119;BME280;28729;49.838;8.650;2022-07-12T00:04:10;100495.94;;;17.06;78.83
43119;BME280;28729;49.838;8.650;2022-07-12T00:08:12;100501.81;;;17.04;78.84
43119;BME280;28729;49.838;8.650;2022-07-12T00:12:14;100502.06;;;17.03;78.92
43119;BME280;28729;49.838;8.650;2022-07-12T00:16:16;100498.19;;;16.99;79.14
43119;BME280;28729;49.838;8.650;2022-07-12T00:20:18;100503.19;;;16.97;79.52
43119;BME280;28729;49.838;8.650;2022-07-12T00:24:20;100499.28;;;16.93;79.55
43119;BME280;28729;49.838;8.650;2022-07-12T00:28:22;100506.78;;;16.92;79.91
43119;BME280;28729;49.838;8.650;2022-07-12T00:32:24;100503.72;;;16.94;80.04
43119;BME280;28729;49.838;8.650;2022-07-12T00:36:25;100500.41;;;16.97;79.57
43119;BME280;28729;49.838;8.650;2022-07-12T00:40:27;100498.16;;;16.94;79.92
43119;BME280;28729;49.838;8.650;2022-07-12T00:44:29;100498.72;;;16.91;80.15
43119;BME280;28729;49.838;8.650;2022-07-12T00:48:32;100493.41;;;16.89;80.52
43119;BME280;28729;49.838;8.650;2022-07-12T00:52:36;100484.19;;;16.83;80.68
43119;BME280;28729;49.838;8.650;2022-07-12T00:56:39;100491.72;;;16.83;80.96
43119;BME280;28729;49.838;8.650;2022-07-12T01:00:41;100488.09;;;16.77;81.93
43119;BME280;28729;49.838;8.650;2022-07-12T01:04:44;100464.09;;;16.71;81.65
43119;BME280;28729;49.838;8.650;2022-07-12T01:08:47;100475.78;;;16.68;81.79
43119;BME280;28729;49.838;8.650;2022-07-12T01:12:49;100478.88;;;16.67;82.08
43119;BME280;28729;49.838;8.650;2022-07-12T01:16:52;100483.56;;;16.61;82.71
43119;BME280;28729;49.838;8.650;2022-07-12T01:20:54;100480.22;;;16.59;83.06
43119;BME280;28729;49.838;8.650;2022-07-12T01:24:56;100479.69;;;16.57;83.24
43119;BME280;28729;49.838;8.650;2022-07-12T01:28:58;100483.56;;;16.56;83.32
43119;BME280;28729;49.838;8.650;2022-07-12T01:33:00;100485.47;;;16.50;83.54
43119;BME280;28729;49.838;8.650;2022-07-12T01:37:02;100487.16;;;16.46;83.52
43119;BME280;28729;49.838;8.650;2022-07-12T01:41:04;100480.72;;;16.40;84.03
43119;BME280;28729;49.838;8.650;2022-07-12T01:45:07;100482.38;;;16.36;84.54
43119;BME280;28729;49.838;8.650;2022-07-12T01:49:09;100478.47;;;16.32;85.43
43119;BME280;28729;49.838;8.650;2022-07-12T01:53:12;100483.47;;;16.30;85.66
43119;BME280;28729;49.838;8.650;2022-07-12T01:57:16;100484.03;;;16.27;85.79
43119;BME280;28729;49.838;8.650;2022-07-12T02:01:18;100480.09;;;16.23;86.30
43119;BME280;28729;49.838;8.650;2022-07-12T02:05:20;100480.59;;;16.15;86.15
43119;BME280;28729;49.838;8.650;2022-07-12T02:09:22;100481.38;;;16.05;86.71
43119;BME280;28729;49.838;8.650;2022-07-12T02:13:25;100482.13;;;15.90;88.05
43119;BME280;28729;49.838;8.650;2022-07-12T02:17:27;100478.78;;;15.83;88.78
43119;BME280;28729;49.838;8.650;2022-07-12T02:21:29;100475.66;;;15.75;89.95
43119;BME280;28729;49.838;8.650;2022-07-12T02:25:30;100476.97;;;15.67;90.47
43119;BME280;28729;49.838;8.650;2022-07-12T02:29:33;100477.78;;;15.62;90.61
43119;BME280;28729;49.838;8.650;2022-07-12T02:33:35;100480.22;;;15.54;90.75
43119;BME280;28729;49.838;8.650;2022-07-12T02:37:37;100483.22;;;15.47;91.12
43119;BME280;28729;49.838;8.650;2022-07-12T02:41:38;100485.38;;;15.40;91.87
43119;BME280;28729;49.838;8.650;2022-07-12T02:45:40;100491.41;;;15.32;91.50
43119;BME280;28729;49.838;8.650;2022-07-12T02:49:42;100492.09;;;15.17;91.93
43119;BME280;28729;49.838;8.650;2022-07-12T02:53:44;100504.47;;;15.04;93.46
43119;BME280;28729;49.838;8.650;2022-07-12T02:57:46;100500.88;;;15.03;94.62
43119;BME280;28729;49.838;8.650;2022-07-12T03:01:47;100508.63;;;15.01;94.96
43119;BME280;28729;49.838;8.650;2022-07-12T03:05:50;100513.63;;;14.99;94.81
43119;BME280;28729;49.838;8.650;2022-07-12T03:09:52;100509.16;;;14.98;95.06
43119;BME280;28729;49.838;8.650;2022-07-12T03:13:53;100509.72;;;15.00;95.10
43119;BME280;28729;49.838;8.650;2022-07-12T03:17:56;100520.84;;;15.00;95.17
43119;BME280;28729;49.838;8.650;2022-07-12T03:21:57;100514.97;;;14.97;95.57
43119;BME280;28729;49.838;8.650;2022-07-12T03:25:59;100518.00;;;14.95;95.73
43119;BME280;28729;49.838;8.650;2022-07-12T03:30:01;100523.53;;;14.95;95.99
43119;BME280;28729;49.838;8.650;2022-07-12T03:34:03;100530.78;;;14.96;96.05
43119;BME280;28729;49.838;8.650;2022-07-12T03:38:04;100535.22;;;14.97;96.80
43119;BME280;28729;49.838;8.650;2022-07-12T03:42:06;100529.41;;;14.99;97.62
43119;BME280;28729;49.838;8.650;2022-07-12T03:46:08;100528.31;;;15.00;97.39
43119;BME280;28729;49.838;8.650;2022-07-12T03:50:11;100541.09;;;15.01;98.29
43119;BME280;28729;49.838;8.650;2022-07-12T03:54:14;100530.88;;;15.07;98.19
43119;BME280;28729;49.838;8.650;2022-07-12T03:58:16;100541.75;;;15.08;97.41
43119;BME280;28729;49.838;8.650;2022-07-12T04:02:18;100530.34;;;15.10;97.83
43119;BME280;28729;49.838;8.650;2022-07-12T04:06:21;100533.72;;;15.12;97.84
43119;BME280;28729;49.838;8.650;2022-07-12T04:10:23;100538.16;;;15.13;97.61
43119;BME280;28729;49.838;8.650;2022-07-12T04:14:25;100530.94;;;15.12;98.25
43119;BME280;28729;49.838;8.650;2022-07-12T04:18:28;100527.63;;;15.15;97.72
43119;BME280;28729;49.838;8.650;2022-07-12T04:22:30;100533.19;;;15.15;97.25
43119;BME280;28729;49.838;8.650;2022-07-12T04:26:32;100535.38;;;15.13;97.67
43119;BME280;28729;49.838;8.650;2022-07-12T04:30:34;100538.16;;;15.13;98.09
43119;BME280;28729;49.838;8.650;2022-07-12T04:34:35;100536.50;;;15.12;98.46
43119;BME280;28729;49.838;8.650;2022-07-12T04:38:37;100535.91;;;15.10;98.82
43119;BME280;28729;49.838;8.650;2022-07-12T04:42:39;100542.81;;;15.07;99.43
43119;BME280;28729;49.838;8.650;2022-07-12T04:46:40;100548.44;;;15.12;99.25
43119;BME280;28729;49.838;8.650;2022-07-12T04:50:42;100542.59;;;15.14;99.30
43119;BME280;28729;49.838;8.650;2022-07-12T04:54:44;100543.78;;;15.18;99.64
43119;BME280;28729;49.838;8.650;2022-07-12T04:58:45;100556.28;;;15.20;99.77
43119;BME280;28729;49.838;8.650;2022-07-12T05:02:47;100559.97;;;15.26;99.87
43119;BME280;28729;49.838;8.650;2022-07-12T05:06:49;100559.47;;;15.34;99.63
43119;BME280;28729;49.838;8.650;2022-07-12T05:10:51;100567.00;;;15.39;100.00
43119;BME280;28729;49.838;8.650;2022-07-12T05:14:53;100572.34;;;15.45;100.00
43119;BME280;28729;49.838;8.650;2022-07-12T05:18:55;100575.72;;;15.53;100.00
43119;BME280;28729;49.838;8.650;2022-07-12T05:22:56;100576.66;;;15.63;100.00
43119;BME280;28729;49.838;8.650;2022-07-12T05:26:58;100579.59;;;15.74;99.93
43119;BME280;28729;49.838;8.650;2022-07-12T05:31:01;100585.75;;;15.81;99.94
43119;BME280;28729;49.838;8.650;2022-07-12T05:35:03;100581.91;;;15.87;100.00
43119;BME280;28729;49.838;8.650;2022-07-12T05:39:05;100589.84;;;16.10;100.00
43119;BME280;28729;49.838;8.650;2022-07-12T05:43:07;100591.41;;;16.33;99.71
43119;BME280;28729;49.838;8.650;2022-07-12T05:47:09;100604.25;;;16.50;99.41
43119;BME280;28729;49.838;8.650;2022-07-12T05:51:10;100606.03;;;16.66;98.78
43119;BME280;28729;49.838;8.650;2022-07-12T05:55:31;100608.38;;;16.84;98.58
43119;BME280;28729;49.838;8.650;2022-07-12T05:59:34;100610.66;;;17.03;98.01
43119;BME280;28729;49.838;8.650;2022-07-12T06:03:36;100617.97;;;17.19;97.37
43119;BME280;28729;49.838;8.650;2022-07-12T06:07:38;100615.75;;;17.37;96.54
43119;BME280;28729;49.838;8.650;2022-07-12T06:11:39;100628.06;;;17.56;95.91
43119;BME280;28729;49.838;8.650;2022-07-12T06:15:41;100628.91;;;17.77;94.93
43119;BME280;28729;49.838;8.650;2022-07-12T06:19:43;100628.66;;;17.99;93.73
43119;BME280;28729;49.838;8.650;2022-07-12T06:23:45;100632.00;;;18.16;93.17
43119;BME280;28729;49.838;8.650;2022-07-12T06:27:47;100633.38;;;18.34;91.87
43119;BME280;28729;49.838;8.650;2022-07-12T06:31:49;100636.41;;;18.53;91.03
43119;BME280;28729;49.838;8.650;2022-07-12T06:35:51;100649.22;;;18.75;90.11
43119;BME280;28729;49.838;8.650;2022-07-12T06:39:52;100647.47;;;18.94;89.38
43119;BME280;28729;49.838;8.650;2022-07-12T06:43:55;100640.13;;;19.13;88.37
43119;BME280;28729;49.838;8.650;2022-07-12T06:47:57;100638.66;;;19.31;87.22
43119;BME280;28729;49.838;8.650;2022-07-12T06:51:58;100636.59;;;19.42;85.97
43119;BME280;28729;49.838;8.650;2022-07-12T06:56:00;100643.75;;;19.64;85.36
43119;BME280;28729;49.838;8.650;2022-07-12T07:00:03;100645.88;;;19.82;83.35
43119;BME280;28729;49.838;8.650;2022-07-12T07:04:06;100644.03;;;20.01;82.79
43119;BME280;28729;49.838;8.650;2022-07-12T07:08:07;100655.06;;;20.22;81.79
43119;BME280;28729;49.838;8.650;2022-07-12T07:12:17;100645.31;;;20.43;79.69
43119;BME280;28729;49.838;8.650;2022-07-12T07:16:19;100648.81;;;20.64;77.78
43119;BME280;28729;49.838;8.650;2022-07-12T07:20:24;100653.25;;;20.89;77.24
43119;BME280;28729;49.838;8.650;2022-07-12T07:24:39;100657.53;;;21.06;75.88
43119;BME280;28729;49.838;8.650;2022-07-12T07:28:46;100653.56;;;21.31;75.02
43119;BME280;28729;49.838;8.650;2022-07-12T07:33:06;100647.56;;;21.61;72.87
43119;BME280;28729;49.838;8.650;2022-07-12T07:37:18;100652.03;;;21.81;70.07
43119;BME280;28729;49.838;8.650;2022-07-12T07:41:26;100653.28;;;22.08;68.65
43119;BME280;28729;49.838;8.650;2022-07-12T07:45:28;100659.06;;;22.30;66.14
43119;BME280;28729;49.838;8.650;2022-07-12T07:49:29;100651.59;;;22.40;66.32
43119;BME280;28729;49.838;8.650;2022-07-12T07:53:31;100657.06;;;22.50;65.67
43119;BME280;28729;49.838;8.650;2022-07-12T07:57:34;100660.81;;;22.59;64.60
43119;BME280;28729;49.838;8.650;2022-07-12T08:01:36;100659.09;;;22.91;63.44
43119;BME280;28729;49.838;8.650;2022-07-12T08:05:45;100658.25;;;23.04;62.81
43119;BME280;28729;49.838;8.650;2022-07-12T08:09:50;100655.53;;;23.27;62.43
43119;BME280;28729;49.838;8.650;2022-07-12T08:13:52;100653.94;;;23.48;61.57
43119;BME280;28729;49.838;8.650;2022-07-12T08:17:55;100649.59;;;23.64;60.66
43119;BME280;28729;49.838;8.650;2022-07-12T08:22:02;100658.38;;;23.99;59.28
43119;BME280;28729;49.838;8.650;2022-07-12T08:26:15;100651.97;;;24.30;58.24
43119;BME280;28729;49.838;8.650;2022-07-12T08:30:34;100649.59;;;24.23;58.39
43119;BME280;28729;49.838;8.650;2022-07-12T08:34:49;100652.19;;;24.11;58.20
43119;BME280;28729;49.838;8.650;2022-07-12T08:38:56;100640.81;;;24.47;55.78
43119;BME280;28729;49.838;8.650;2022-07-12T08:43:16;100639.22;;;24.95;53.56
43119;BME280;28729;49.838;8.650;2022-07-12T08:47:37;100641.81;;;25.14;51.99
43119;BME280;28729;49.838;8.650;2022-07-12T08:51:40;100642.50;;;25.45;51.74
43119;BME280;28729;49.838;8.650;2022-07-12T08:55:43;100643.72;;;25.71;49.50
43119;BME280;28729;49.838;8.650;2022-07-12T09:00:20;100649.88;;;26.07;46.97
43119;BME280;28729;49.838;8.650;2022-07-12T09:04:28;100647.66;;;26.39;46.40
43119;BME280;28729;49.838;8.650;2022-07-12T09:08:55;100655.63;;;26.54;45.42
43119;BME280;28729;49.838;8.650;2022-07-12T09:12:59;100646.09;;;26.59;44.57
43119;BME280;28729;49.838;8.650;2022-07-12T09:17:07;100651.94;;;26.63;45.22
43119;BME280;28729;49.838;8.650;2022-07-12T09:21:25;100639.59;;;26.67;45.73
43119;BME280;28729;49.838;8.650;2022-07-12T09:25:30;100636.00;;;26.49;45.29
43119;BME280;28729;49.838;8.650;2022-07-12T09:29:47;100637.06;;;26.10;46.29
43119;BME280;28729;49.838;8.650;2022-07-12T09:34:01;100626.88;;;26.26;46.06
43119;BME280;28729;49.838;8.650;2022-07-12T09:38:23;100627.47;;;26.67;44.77
43119;BME280;28729;49.838;8.650;2022-07-12T09:42:25;100633.69;;;26.34;44.50
43119;BME280;28729;49.838;8.650;2022-07-12T09:46:29;100637.47;;;26.47;44.04
43119;BME280;28729;49.838;8.650;2022-07-12T09:50:35;100626.97;;;26.00;43.50
43119;BME280;28729;49.838;8.650;2022-07-12T09:54:40;100622.28;;;25.43;44.44
43119;BME280;28729;49.838;8.650;2022-07-12T09:58:52;100630.88;;;25.21;45.29
43119;BME280;28729;49.838;8.650;2022-07-12T10:02:55;100646.16;;;24.89;45.58
43119;BME280;28729;49.838;8.650;2022-07-12T10:06:59;100645.03;;;24.98;45.92
43119;BME280;28729;49.838;8.650;2022-07-12T10:11:05;100640.97;;;25.22;45.83
43119;BME280;28729;49.838;8.650;2022-07-12T10:15:14;100642.72;;;26.01;44.02
43119;BME280;28729;49.838;8.650;2022-07-12T10:19:31;100633.44;;;26.65;42.75
43119;BME280;28729;49.838;8.650;2022-07-12T10:23:35;100628.75;;;27.16;41.73
43119;BME280;28729;49.838;8.650;2022-07-12T10:27:51;100625.00;;;27.54;40.28
43119;BME280;28729;49.838;8.650;2022-07-12T10:31:58;100616.81;;;27.82;38.85
43119;BME280;28729;49.838;8.650;2022-07-12T10:36:07;100618.47;;;28.16;38.77
43119;BME280;28729;49.838;8.650;2022-07-12T10:40:30;100613.59;;;28.38;38.33
43119;BME280;28729;49.838;8.650;2022-07-12T10:44:49;100613.75;;;28.42;38.43
43119;BME280;28729;49.838;8.650;2022-07-12T10:48:51;100612.22;;;28.56;37.77
43119;BME280;28729;49.838;8.650;2022-07-12T10:53:22;100613.44;;;28.34;37.63
43119;BME280;28729;49.838;8.650;2022-07-12T11:01:45;100623.31;;;28.49;37.24
43119;BME280;28729;49.838;8.650;2022-07-12T11:10:32;100619.16;;;27.80;38.27
43119;BME280;28729;49.838;8.650;2022-07-12T11:14:34;100614.72;;;28.25;37.88
43119;BME280;28729;49.838;8.650;2022-07-12T11:18:36;100611.25;;;28.52;37.43
43119;BME280;28729;49.838;8.650;2022-07-12T11:22:40;100609.38;;;28.56;35.98
43119;BME280;28729;49.838;8.650;2022-07-12T11:26:42;100596.88;;;28.57;36.55
43119;BME280;28729;49.838;8.650;2022-07-12T11:30:51;100594.50;;;28.84;35.83
43119;BME280;28729;49.838;8.650;2022-07-12T11:34:53;100593.56;;;28.92;35.12
43119;BME280;28729;49.838;8.650;2022-07-12T11:38:59;100589.75;;;29.37;35.29
43119;BME280;28729;49.838;8.650;2022-07-12T11:43:04;100584.03;;;29.62;34.61
43119;BME280;28729;49.838;8.650;2022-07-12T11:47:10;100585.84;;;29.82;33.71
43119;BME280;28729;49.838;8.650;2022-07-12T11:51:13;100586.00;;;30.02;33.21
43119;BME280;28729;49.838;8.650;2022-07-12T11:55:16;100590.41;;;29.99;33.55
43119;BME280;28729;49.838;8.650;2022-07-12T11:59:26;100571.22;;;30.24;33.44
43119;BME280;28729;49.838;8.650;2022-07-12T12:03:28;100569.00;;;30.17;32.92
43119;BME280;28729;49.838;8.650;2022-07-12T12:07:30;100564.91;;;29.87;32.62
43119;BME280;28729;49.838;8.650;2022-07-12T12:11:34;100568.69;;;30.07;33.17
43119;BME280;28729;49.838;8.650;2022-07-12T12:15:36;100571.25;;;30.12;32.53
43119;BME280;28729;49.838;8.650;2022-07-12T12:19:42;100556.78;;;30.17;32.91
43119;BME280;28729;49.838;8.650;2022-07-12T12:23:44;100555.91;;;30.76;32.19
43119;BME280;28729;49.838;8.650;2022-07-12T12:27:48;100552.88;;;31.55;31.31
43119;BME280;28729;49.838;8.650;2022-07-12T12:32:17;100551.31;;;32.62;29.73
43119;BME280;28729;49.838;8.650;2022-07-12T12:36:19;100532.69;;;33.22;28.81
43119;BME280;28729;49.838;8.650;2022-07-12T12:40:27;100524.22;;;34.30;27.59
43119;BME280;28729;49.838;8.650;2022-07-12T12:44:33;100532.16;;;35.03;26.25
43119;BME280;28729;49.838;8.650;2022-07-12T12:48:35;100530.75;;;35.37;25.62
43119;BME280;28729;49.838;8.650;2022-07-12T12:52:49;100531.78;;;35.99;23.86
43119;BME280;28729;49.838;8.650;2022-07-12T12:56:54;100528.00;;;35.55;23.26
43119;BME280;28729;49.838;8.650;2022-07-12T13:00:55;100520.44;;;36.38;23.12
43119;BME280;28729;49.838;8.650;2022-07-12T13:05:00;100527.41;;;36.69;22.98
43119;BME280;28729;49.838;8.650;2022-07-12T13:09:07;100517.03;;;37.40;22.24
43119;BME280;28729;49.838;8.650;2022-07-12T13:13:18;100520.25;;;38.30;21.01
43119;BME280;28729;49.838;8.650;2022-07-12T13:17:22;100517.88;;;39.15;20.75
43119;BME280;28729;49.838;8.650;2022-07-12T13:21:24;100508.81;;;39.51;19.59
43119;BME280;28729;49.838;8.650;2022-07-12T13:25:35;100515.19;;;38.93;19.82
43119;BME280;28729;49.838;8.650;2022-07-12T13:29:37;100517.34;;;39.24;19.48
43119;BME280;28729;49.838;8.650;2022-07-12T13:33:39;100497.06;;;39.34;19.09
43119;BME280;28729;49.838;8.650;2022-07-12T13:37:42;100505.75;;;39.96;18.79
43119;BME280;28729;49.838;8.650;2022-07-12T13:41:43;100501.44;;;40.35;18.20
43119;BME280;28729;49.838;8.650;2022-07-12T13:45:45;100492.16;;;40.47;17.52
43119;BME280;28729;49.838;8.650;2022-07-12T13:49:48;100480.97;;;40.72;17.14
43119;BME280;28729;49.838;8.650;2022-07-12T13:53:58;100477.94;;;41.43;17.02
43119;BME280;28729;49.838;8.650;2022-07-12T13:58:00;100479.97;;;42.19;16.38
43119;BME280;28729;49.838;8.650;2022-07-12T14:02:03;100485.56;;;42.91;15.61
43119;BME280;28729;49.838;8.650;2022-07-12T14:06:05;100477.44;;;42.70;14.86
43119;BME280;28729;49.838;8.650;2022-07-12T14:10:07;100479.03;;;42.05;14.89
43119;BME280;28729;49.838;8.650;2022-07-12T14:14:09;100470.28;;;43.04;14.63
43119;BME280;28729;49.838;8.650;2022-07-12T14:18:19;100478.63;;;43.60;14.08
43119;BME280;28729;49.838;8.650;2022-07-12T14:22:21;100466.22;;;42.55;14.32
43119;BME280;28729;49.838;8.650;2022-07-12T14:26:23;100469.91;;;43.60;13.92
43119;BME280;28729;49.838;8.650;2022-07-12T14:30:28;100466.69;;;44.34;13.73
43119;BME280;28729;49.838;8.650;2022-07-12T14:34:30;100462.28;;;44.04;13.37
43119;BME280;28729;49.838;8.650;2022-07-12T14:38:32;100450.53;;;43.69;13.22
43119;BME280;28729;49.838;8.650;2022-07-12T14:42:33;100455.31;;;43.76;13.54
43119;BME280;28729;49.838;8.650;2022-07-12T14:46:35;100452.66;;;43.27;13.33
43119;BME280;28729;49.838;8.650;2022-07-12T14:50:37;100456.34;;;43.82;13.07
43119;BME280;28729;49.838;8.650;2022-07-12T14:54:39;100457.69;;;42.65;13.45
43119;BME280;28729;49.838;8.650;2022-07-12T14:58:41;100445.91;;;41.34;14.50
43119;BME280;28729;49.838;8.650;2022-07-12T15:02:42;100447.38;;;40.35;15.11
43119;BME280;28729;49.838;8.650;2022-07-12T15:06:51;100448.81;;;39.69;15.24
43119;BME280;28729;49.838;8.650;2022-07-12T15:10:53;100438.03;;;38.74;15.66
43119;BME280;28729;49.838;8.650;2022-07-12T15:14:55;100432.50;;;38.90;15.82
43119;BME280;28729;49.838;8.650;2022-07-12T15:18:58;100431.72;;;40.09;14.75
43119;BME280;28729;49.838;8.650;2022-07-12T15:23:00;100423.38;;;41.25;14.39
43119;BME280;28729;49.838;8.650;2022-07-12T15:27:04;100422.00;;;41.70;13.57
43119;BME280;28729;49.838;8.650;2022-07-12T15:31:08;100425.66;;;40.50;14.28
43119;BME280;28729;49.838;8.650;2022-07-12T15:35:10;100425.06;;;38.93;14.98
43119;BME280;28729;49.838;8.650;2022-07-12T15:39:12;100420.25;;;37.08;16.54
43119;BME280;28729;49.838;8.650;2022-07-12T15:43:13;100411.31;;;35.77;17.56
43119;BME280;28729;49.838;8.650;2022-07-12T15:47:15;100412.94;;;34.73;18.25
43119;BME280;28729;49.838;8.650;2022-07-12T15:51:17;100407.16;;;34.07;19.17
43119;BME280;28729;49.838;8.650;2022-07-12T15:55:19;100400.38;;;33.48;19.72
43119;BME280;28729;49.838;8.650;2022-07-12T15:59:21;100399.03;;;33.01;20.02
43119;BME280;28729;49.838;8.650;2022-07-12T16:03:24;100392.78;;;32.65;20.49
43119;BME280;28729;49.838;8.650;2022-07-12T16:07:26;100400.66;;;32.45;20.93
43119;BME280;28729;49.838;8.650;2022-07-12T16:11:27;100397.47;;;32.00;21.29
43119;BME280;28729;49.838;8.650;2022-07-12T16:15:30;100394.56;;;31.74;21.27
43119;BME280;28729;49.838;8.650;2022-07-12T16:19:31;100386.50;;;31.57;21.29
43119;BME280;28729;49.838;8.650;2022-07-12T16:23:33;100393.13;;;31.64;21.48
43119;BME280;28729;49.838;8.650;2022-07-12T16:27:35;100385.78;;;31.40;21.53
43119;BME280;28729;49.838;8.650;2022-07-12T16:31:37;100392.00;;;31.07;21.99
43119;BME280;28729;49.838;8.650;2022-07-12T16:35:58;100385.31;;;30.80;22.01
43119;BME280;28729;49.838;8.650;2022-07-12T16:40:02;100388.63;;;30.82;21.93
43119;BME280;28729;49.838;8.650;2022-07-12T16:44:04;100390.00;;;30.72;22.37
43119;BME280;28729;49.838;8.650;2022-07-12T16:48:05;100387.81;;;30.65;22.47
43119;BME280;28729;49.838;8.650;2022-07-12T16:52:07;100389.16;;;30.52;22.83
43119;BME280;28729;49.838;8.650;2022-07-12T16:56:09;100380.09;;;30.47;22.52
43119;BME280;28729;49.838;8.650;2022-07-12T17:00:12;100374.41;;;30.47;22.45
43119;BME280;28729;49.838;8.650;2022-07-12T17:04:15;100373.16;;;30.28;23.04
43119;BME280;28729;49.838;8.650;2022-07-12T17:08:18;100377.66;;;30.29;23.64
43119;BME280;28729;49.838;8.650;2022-07-12T17:12:21;100376.53;;;30.18;23.73
43119;BME280;28729;49.838;8.650;2022-07-12T17:16:23;100378.28;;;30.07;23.66
43119;BME280;28729;49.838;8.650;2022-07-12T17:20:25;100376.66;;;30.06;23.74
43119;BME280;28729;49.838;8.650;2022-07-12T17:24:27;100385.91;;;30.03;23.44
43119;BME280;28729;49.838;8.650;2022-07-12T17:28:29;100380.31;;;29.90;23.84
43119;BME280;28729;49.838;8.650;2022-07-12T17:32:30;100391.66;;;29.74;24.32
43119;BME280;28729;49.838;8.650;2022-07-12T17:36:32;100384.22;;;29.54;24.25
43119;BME280;28729;49.838;8.650;2022-07-12T17:40:34;100386.75;;;29.43;24.15
43119;BME280;28729;49.838;8.650;2022-07-12T17:44:36;100388.22;;;29.37;24.59
43119;BME280;28729;49.838;8.650;2022-07-12T17:48:38;100387.16;;;29.29;24.96
43119;BME280;28729;49.838;8.650;2022-07-12T17:52:43;100384.97;;;29.23;24.57
43119;BME280;28729;49.838;8.650;2022-07-12T17:56:45;100391.75;;;29.18;24.80
43119;BME280;28729;49.838;8.650;2022-07-12T18:00:54;100389.97;;;29.14;24.98
43119;BME280;28729;49.838;8.650;2022-07-12T18:04:56;100389.41;;;29.08;25.50
43119;BME280;28729;49.838;8.650;2022-07-12T18:08:58;100398.75;;;28.96;25.97
43119;BME280;28729;49.838;8.650;2022-07-12T18:13:00;100392.06;;;28.76;26.45
43119;BME280;28729;49.838;8.650;2022-07-12T18:17:20;100390.59;;;28.54;26.96
43119;BME280;28729;49.838;8.650;2022-07-12T18:21:41;100399.94;;;28.43;27.05
43119;BME280;28729;49.838;8.650;2022-07-12T18:25:43;100391.53;;;28.34;27.47
43119;BME280;28729;49.838;8.650;2022-07-12T18:29:46;100388.25;;;28.20;27.75
43119;BME280;28729;49.838;8.650;2022-07-12T18:33:47;100392.16;;;28.03;27.89
43119;BME280;28729;49.838;8.650;2022-07-12T18:37:49;100382.66;;;27.74;28.75
43119;BME280;28729;49.838;8.650;2022-07-12T18:41:51;100391.00;;;27.46;29.57
43119;BME280;28729;49.838;8.650;2022-07-12T18:45:53;100399.75;;;27.20;29.91
43119;BME280;28729;49.838;8.650;2022-07-12T18:49:54;100393.09;;;26.95;30.66
43119;BME280;28729;49.838;8.650;2022-07-12T18:53:56;100386.38;;;26.66;31.35
43119;BME280;28729;49.838;8.650;2022-07-12T18:57:59;100380.88;;;26.40;32.02
43119;BME280;28729;49.838;8.650;2022-07-12T19:02:00;100392.81;;;26.16;32.59
43119;BME280;28729;49.838;8.650;2022-07-12T19:06:02;100390.13;;;25.90;33.24
43119;BME280;28729;49.838;8.650;2022-07-12T19:10:07;100395.00;;;25.63;33.67
43119;BME280;28729;49.838;8.650;2022-07-12T19:14:09;100398.75;;;25.38;33.95
43119;BME280;28729;49.838;8.650;2022-07-12T19:18:11;100404.72;;;25.19;34.47
43119;BME280;28729;49.838;8.650;2022-07-12T19:22:13;100407.06;;;24.99;34.72
43119;BME280;28729;49.838;8.650;2022-07-12T19:26:15;100411.34;;;24.79;34.99
43119;BME280;28729;49.838;8.650;2022-07-12T19:30:16;100404.88;;;24.62;35.08
43119;BME280;28729;49.838;8.650;2022-07-12T19:34:18;100404.84;;;24.44;35.51
43119;BME280;28729;49.838;8.650;2022-07-12T19:38:22;100419.38;;;24.29;35.76
43119;BME280;28729;49.838;8.650;2022-07-12T19:42:23;100423.81;;;24.13;35.79
43119;BME280;28729;49.838;8.650;2022-07-12T19:46:25;100421.41;;;23.97;35.96
43119;BME280;28729;49.838;8.650;2022-07-12T19:50:27;100418.38;;;23.85;35.75
43119;BME280;28729;49.838;8.650;2022-07-12T19:54:29;100431.41;;;23.72;36.16
43119;BME280;28729;49.838;8.650;2022-07-12T19:58:31;100426.84;;;23.62;36.00
43119;BME280;28729;49.838;8.650;2022-07-12T20:02:32;100429.94;;;23.52;36.34
43119;BME280;28729;49.838;8.650;2022-07-12T20:06:34;100426.06;;;23.39;37.04
43119;BME280;28729;49.838;8.650;2022-07-12T20:10:40;100422.34;;;23.30;37.17
43119;BME280;28729;49.838;8.650;2022-07-12T20:14:42;100434.69;;;23.20;37.50
43119;BME280;28729;49.838;8.650;2022-07-12T20:18:44;100432.13;;;23.10;38.13
43119;BME280;28729;49.838;8.650;2022-07-12T20:22:46;100439.34;;;23.03;38.11
43119;BME280;28729;49.838;8.650;2022-07-12T20:26:48;100437.28;;;22.94;39.00
43119;BME280;28729;49.838;8.650;2022-07-12T20:30:49;100441.66;;;22.87;39.10
43119;BME280;28729;49.838;8.650;2022-07-12T20:34:51;100438.13;;;22.81;39.30
43119;BME280;28729;49.838;8.650;2022-07-12T20:38:53;100448.16;;;22.73;39.76
43119;BME280;28729;49.838;8.650;2022-07-12T20:42:55;100436.50;;;22.66;40.53
43119;BME280;28729;49.838;8.650;2022-07-12T20:46:57;100445.69;;;22.58;40.52
43119;BME280;28729;49.838;8.650;2022-07-12T20:50:59;100450.88;;;22.51;40.60
43119;BME280;28729;49.838;8.650;2022-07-12T20:55:01;100444.16;;;22.38;41.23
43119;BME280;28729;49.838;8.650;2022-07-12T20:59:03;100438.97;;;22.32;41.44
43119;BME280;28729;49.838;8.650;2022-07-12T21:03:06;100446.66;;;22.26;41.42
43119;BME280;28729;49.838;8.650;2022-07-12T21:07:07;100445.31;;;22.23;41.58
43119;BME280;28729;49.838;8.650;2022-07-12T21:11:09;100441.97;;;22.21;41.81
43119;BME280;28729;49.838;8.650;2022-07-12T21:15:11;100451.00;;;22.18;41.59
43119;BME280;28729;49.838;8.650;2022-07-12T21:19:12;100446.56;;;22.17;42.16
43119;BME280;28729;49.838;8.650;2022-07-12T21:23:14;100447.16;;;22.14;42.30